createdAt,value
2017-09-25T00:00:09.897Z,7.70
2017-09-25T00:02:16.201Z,7.50
2017-09-25T00:04:24.861Z,8.17
2017-09-25T00:06:30.996Z,9.53
2017-09-25T00:08:37.598Z,8.30
2017-09-25T00:10:43.617Z,7.43
2017-09-25T00:12:49.710Z,8.53
2017-09-25T00:14:56.149Z,8.20
2017-09-25T00:17:02.263Z,8.53
2017-09-25T00:19:08.517Z,7.97
2017-09-25T00:21:13.998Z,8.90
2017-09-25T00:23:20.588Z,8.87
2017-09-25T00:25:28.374Z,7.40
2017-09-25T00:27:35.593Z,7.97
2017-09-25T00:29:43.782Z,6.27
2017-09-25T00:31:50.017Z,7.70
2017-09-25T00:33:55.404Z,7.50
2017-09-25T00:36:01.873Z,7.60
2017-09-25T00:38:07.842Z,7.40
2017-09-25T00:40:14.072Z,6.83
2017-09-25T00:42:21.745Z,6.50
2017-09-25T00:44:28.239Z,7.33
2017-09-25T00:46:35.885Z,7.87
2017-09-25T00:48:41.668Z,6.00
2017-09-25T00:50:50.504Z,7.70
2017-09-25T00:53:04.978Z,9.53
2017-09-25T00:55:18.994Z,6.57
2017-09-25T00:57:26.494Z,6.83
2017-09-25T00:59:33.680Z,7.30
2017-09-25T01:01:48.489Z,7.00
2017-09-25T01:03:57.994Z,6.93
2017-09-25T01:06:12.288Z,6.10
2017-09-25T01:08:19.442Z,7.37
2017-09-25T01:10:25.882Z,7.50
2017-09-25T01:12:33.075Z,6.70
2017-09-25T01:14:39.206Z,6.60
2017-09-25T01:16:46.218Z,7.17
2017-09-25T01:18:52.084Z,7.10
2017-09-25T01:20:59.841Z,7.60
2017-09-25T01:23:06.636Z,6.80
2017-09-25T01:25:12.517Z,6.80
2017-09-25T01:27:19.139Z,5.47
2017-09-25T01:29:24.748Z,7.70
2017-09-25T01:31:31.538Z,7.90
2017-09-25T01:33:39.408Z,7.90
2017-09-25T01:35:44.579Z,6.10
2017-09-25T01:37:50.292Z,7.10
2017-09-25T01:39:56.346Z,8.23
2017-09-25T01:42:02.148Z,8.20
2017-09-25T01:44:08.381Z,8.53
2017-09-25T01:46:14.363Z,7.80
2017-09-25T01:48:21.754Z,7.43
2017-09-25T01:50:28.442Z,7.93
2017-09-25T01:52:34.989Z,6.80
2017-09-25T01:54:41.958Z,7.47
2017-09-25T01:56:47.979Z,10.00
2017-09-25T01:58:53.693Z,8.80
2017-09-25T02:00:59.107Z,7.27
2017-09-25T02:03:05.572Z,7.50
2017-09-25T02:05:11.767Z,7.23
2017-09-25T02:07:17.776Z,7.10
2017-09-25T02:09:27.442Z,8.90
2017-09-25T02:11:35.904Z,8.23
2017-09-25T02:13:41.318Z,9.37
2017-09-25T02:15:47.087Z,7.30
2017-09-25T02:17:53.006Z,8.90
2017-09-25T02:19:58.926Z,8.53
2017-09-25T02:22:04.890Z,10.67
2017-09-25T02:24:10.661Z,8.00
2017-09-25T02:26:16.588Z,10.13
2017-09-25T02:28:23.989Z,10.47
2017-09-25T02:30:30.414Z,10.13
2017-09-25T02:32:39.051Z,12.10
2017-09-25T02:34:45.160Z,9.57
2017-09-25T02:36:51.569Z,8.53
2017-09-25T02:38:57.511Z,10.47
2017-09-25T02:41:04.274Z,10.10
2017-09-25T02:43:10.068Z,10.50
2017-09-25T02:45:16.423Z,11.87
2017-09-25T02:47:22.905Z,10.40
2017-09-25T02:49:30.079Z,10.87
2017-09-25T02:51:37.085Z,13.10
2017-09-25T02:53:42.621Z,11.07
2017-09-25T02:55:49.166Z,14.67
2017-09-25T02:57:55.782Z,12.50
2017-09-25T03:00:01.985Z,12.20
2017-09-25T03:02:07.929Z,11.80
2017-09-25T03:04:13.775Z,12.60
2017-09-25T03:06:21.335Z,12.30
2017-09-25T03:08:27.805Z,12.33
2017-09-25T03:10:36.028Z,13.37
2017-09-25T03:12:41.896Z,14.10
2017-09-25T03:14:47.748Z,13.00
2017-09-25T03:16:53.727Z,11.23
2017-09-25T03:18:59.701Z,13.07
2017-09-25T03:21:06.123Z,11.70
2017-09-25T03:23:12.441Z,10.63
2017-09-25T03:25:18.561Z,15.63
2017-09-25T03:27:26.300Z,13.00
2017-09-25T03:29:33.236Z,13.40
2017-09-25T03:31:39.817Z,11.90
2017-09-25T03:33:46.001Z,9.80
2017-09-25T03:35:53.090Z,13.20
2017-09-25T03:37:59.034Z,12.93
2017-09-25T03:40:04.820Z,12.63
2017-09-25T03:42:10.706Z,11.60
2017-09-25T03:44:17.567Z,12.57
2017-09-25T03:46:25.635Z,13.63
2017-09-25T03:48:32.170Z,13.10
2017-09-25T03:50:38.660Z,13.63
2017-09-25T03:52:44.843Z,12.77
2017-09-25T03:54:50.286Z,14.57
2017-09-25T03:56:56.693Z,12.17
2017-09-25T03:59:02.939Z,17.73
2017-09-25T04:01:09.042Z,15.60
2017-09-25T04:03:14.425Z,15.43
2017-09-25T04:05:21.760Z,13.10
2017-09-25T04:07:36.877Z,13.13
2017-09-25T04:09:43.142Z,16.27
2017-09-25T04:11:48.737Z,14.20
2017-09-25T04:13:54.465Z,19.77
2017-09-25T04:16:00.982Z,13.83
2017-09-25T04:18:06.553Z,15.33
2017-09-25T04:20:12.948Z,13.97
2017-09-25T04:22:19.308Z,17.00
2017-09-25T04:24:25.267Z,15.80
2017-09-25T04:26:31.928Z,13.80
2017-09-25T04:28:38.727Z,12.73
2017-09-25T04:30:44.307Z,14.77
2017-09-25T04:32:50.541Z,14.43
2017-09-25T04:34:57.303Z,17.40
2017-09-25T04:37:03.476Z,15.87
2017-09-25T04:39:10.076Z,21.90
2017-09-25T04:41:16.610Z,19.97
2017-09-25T04:43:22.322Z,25.00
2017-09-25T04:45:29.045Z,30.10
2017-09-25T04:47:35.752Z,49.70
2017-09-25T04:49:42.707Z,78.00
2017-09-25T04:53:57.801Z,191.40
2017-09-25T04:56:03.261Z,211.10
2017-09-25T04:58:08.949Z,99.17
2017-09-25T05:00:15.203Z,280.07
2017-09-25T05:02:20.996Z,271.23
2017-09-25T05:04:29.513Z,141.50
2017-09-25T05:06:37.329Z,222.80
2017-09-25T05:08:44.816Z,535.83
2017-09-25T05:10:51.103Z,483.03
2017-09-25T05:12:57.260Z,404.43
2017-09-25T05:15:02.880Z,193.50
2017-09-25T05:17:09.363Z,108.50
2017-09-25T05:19:15.098Z,46.50
2017-09-25T05:21:20.912Z,30.13
2017-09-25T05:23:28.221Z,24.80
2017-09-25T05:25:36.136Z,29.17
2017-09-25T05:27:44.688Z,22.87
2017-09-25T05:29:50.205Z,26.20
2017-09-25T05:31:56.373Z,22.53
2017-09-25T05:34:01.877Z,19.73
2017-09-25T05:36:08.418Z,27.33
2017-09-25T05:38:15.567Z,18.43
2017-09-25T05:40:21.562Z,18.40
2017-09-25T05:42:28.669Z,20.07
2017-09-25T05:44:36.090Z,19.87
2017-09-25T05:46:41.578Z,20.43
2017-09-25T05:48:47.107Z,19.40
2017-09-25T05:50:54.271Z,21.83
2017-09-25T05:52:59.958Z,24.30
2017-09-25T05:55:05.685Z,19.90
2017-09-25T05:57:12.078Z,20.70
2017-09-25T05:59:19.677Z,17.97
2017-09-25T06:01:26.721Z,20.83
2017-09-25T06:03:33.161Z,21.10
2017-09-25T06:05:47.827Z,18.67
2017-09-25T06:07:53.362Z,21.30
2017-09-25T06:09:59.062Z,20.00
2017-09-25T06:12:04.815Z,19.90
2017-09-25T06:14:10.346Z,17.67
2017-09-25T06:16:16.448Z,16.37
2017-09-25T06:18:22.490Z,22.77
2017-09-25T06:20:30.209Z,20.67
2017-09-25T06:22:38.140Z,20.27
2017-09-25T06:24:44.097Z,19.33
2017-09-25T06:26:49.497Z,16.00
2017-09-25T06:28:54.883Z,19.07
2017-09-25T06:31:01.053Z,19.53
2017-09-25T06:33:06.680Z,25.23
2017-09-25T06:35:12.576Z,20.27
2017-09-25T06:37:21.536Z,17.23
2017-09-25T06:39:27.905Z,24.70
2017-09-25T06:41:35.576Z,20.03
2017-09-25T06:43:41.221Z,23.37
2017-09-25T06:45:46.670Z,17.60
2017-09-25T06:47:52.072Z,15.40
2017-09-25T06:49:57.902Z,19.60
2017-09-25T06:52:04.497Z,18.90
2017-09-25T06:54:10.273Z,16.13
2017-09-25T06:56:15.996Z,18.93
2017-09-25T06:58:23.841Z,25.90
2017-09-25T07:00:29.214Z,22.77
2017-09-25T07:02:35.049Z,16.90
2017-09-25T07:04:40.517Z,23.77
2017-09-25T07:06:45.947Z,18.50
2017-09-25T07:08:51.656Z,19.63
2017-09-25T07:10:57.239Z,19.97
2017-09-25T07:13:02.779Z,17.63
2017-09-25T07:15:08.450Z,15.67
2017-09-25T07:17:13.809Z,21.97
2017-09-25T07:19:19.532Z,18.77
2017-09-25T07:21:26.351Z,24.57
2017-09-25T07:23:32.506Z,24.90
2017-09-25T07:25:39.421Z,22.50
2017-09-25T07:27:45.127Z,17.73
2017-09-25T07:29:51.080Z,16.80
2017-09-25T07:31:57.989Z,20.47
2017-09-25T07:34:05.025Z,21.60
2017-09-25T07:36:13.445Z,16.60
2017-09-25T07:38:25.643Z,22.17
2017-09-25T07:40:35.513Z,24.27
2017-09-25T07:42:43.246Z,23.17
2017-09-25T07:44:50.519Z,17.77
2017-09-25T07:46:56.492Z,20.03
2017-09-25T07:49:04.471Z,24.53
2017-09-25T07:51:10.699Z,25.60
2017-09-25T07:53:16.465Z,26.73
2017-09-25T07:55:22.915Z,22.00
2017-09-25T07:57:29.817Z,24.83
2017-09-25T07:59:37.158Z,21.73
2017-09-25T08:01:42.975Z,35.07
2017-09-25T08:03:50.410Z,23.87
2017-09-25T08:05:56.829Z,25.40
2017-09-25T08:08:02.354Z,25.57
2017-09-25T08:10:08.328Z,23.10
2017-09-25T08:12:13.812Z,22.37
2017-09-25T08:14:19.370Z,20.17
2017-09-25T08:16:26.123Z,28.10
2017-09-25T08:18:51.295Z,24.40
2017-09-25T08:20:58.905Z,22.93
2017-09-25T08:23:04.859Z,25.83
2017-09-25T08:25:11.055Z,22.20
2017-09-25T08:27:16.674Z,26.63
2017-09-25T08:29:25.740Z,20.47
2017-09-25T08:31:31.962Z,22.40
2017-09-25T08:33:37.435Z,22.40
2017-09-25T08:35:46.367Z,22.67
2017-09-25T08:37:54.658Z,23.80
2017-09-25T08:40:06.117Z,19.50
2017-09-25T08:42:14.309Z,22.60
2017-09-25T08:44:23.567Z,21.43
2017-09-25T08:46:39.169Z,25.57
2017-09-25T08:48:46.656Z,34.33
2017-09-25T08:51:01.419Z,21.00
2017-09-25T08:53:10.037Z,18.03
2017-09-25T08:55:15.513Z,21.03
2017-09-25T08:57:23.573Z,16.97
2017-09-25T08:59:31.654Z,20.53
2017-09-25T09:01:38.606Z,18.03
2017-09-25T09:03:44.389Z,20.60
2017-09-25T09:05:50.077Z,16.67
2017-09-25T09:07:55.522Z,20.00
2017-09-25T09:10:01.230Z,17.50
2017-09-25T09:12:07.067Z,18.33
2017-09-25T09:14:12.462Z,16.37
2017-09-25T09:16:18.168Z,15.83
2017-09-25T09:18:25.948Z,16.43
2017-09-25T09:20:31.535Z,15.13
2017-09-25T09:22:39.300Z,15.40
2017-09-25T09:24:45.049Z,15.43
2017-09-25T09:26:50.770Z,16.67
2017-09-25T09:28:56.253Z,14.53
2017-09-25T09:31:02.310Z,17.83
2017-09-25T09:33:08.775Z,14.77
2017-09-25T09:35:14.491Z,15.80
2017-09-25T09:37:20.651Z,16.57
2017-09-25T09:39:28.777Z,15.80
2017-09-25T09:41:36.173Z,14.73
2017-09-25T09:43:42.681Z,15.90
2017-09-25T09:45:48.048Z,15.63
2017-09-25T09:47:54.913Z,16.13
2017-09-25T09:50:00.273Z,16.60
2017-09-25T09:52:05.617Z,15.57
2017-09-25T09:54:14.680Z,16.67
2017-09-25T09:56:21.077Z,22.47
2017-09-25T09:58:28.470Z,16.90
2017-09-25T10:00:33.874Z,18.13
2017-09-25T10:02:39.413Z,15.73
2017-09-25T10:04:44.951Z,18.57
2017-09-25T10:06:51.210Z,20.77
2017-09-25T10:08:56.784Z,17.33
2017-09-25T10:11:02.292Z,19.10
2017-09-25T10:13:08.126Z,17.90
2017-09-25T10:15:13.665Z,18.17
2017-09-25T10:17:19.861Z,18.80
2017-09-25T10:19:26.534Z,19.13
2017-09-25T10:21:36.106Z,18.20
2017-09-25T10:23:45.242Z,20.23
2017-09-25T10:25:58.846Z,19.50
2017-09-25T10:28:12.129Z,17.33
2017-09-25T10:30:17.787Z,18.03
2017-09-25T10:32:25.537Z,20.07
2017-09-25T10:34:35.511Z,17.33
2017-09-25T10:36:41.875Z,19.90
2017-09-25T10:38:50.034Z,17.70
2017-09-25T10:40:55.468Z,20.47
2017-09-25T10:43:01.065Z,17.70
2017-09-25T10:45:06.841Z,17.70
2017-09-25T10:47:15.745Z,18.33
2017-09-25T10:49:22.855Z,18.63
2017-09-25T10:51:29.353Z,19.47
2017-09-25T10:53:42.128Z,18.47
2017-09-25T10:55:48.566Z,18.37
2017-09-25T10:57:54.378Z,17.47
2017-09-25T11:00:00.101Z,18.30
2017-09-25T11:02:05.654Z,16.80
2017-09-25T11:04:11.559Z,16.87
2017-09-25T11:06:17.942Z,17.87
2017-09-25T11:08:24.887Z,18.03
2017-09-25T11:10:33.367Z,16.53
2017-09-25T11:12:41.010Z,16.40
2017-09-25T11:14:46.532Z,19.03
2017-09-25T11:16:54.967Z,17.23
2017-09-25T11:19:00.391Z,17.90
2017-09-25T11:21:05.812Z,19.80
2017-09-25T11:23:11.554Z,18.13
2017-09-25T11:25:17.160Z,16.80
2017-09-25T11:27:23.175Z,16.80
2017-09-25T11:29:30.538Z,17.90
2017-09-25T11:31:38.590Z,22.80
2017-09-25T11:33:44.389Z,20.13
2017-09-25T11:35:50.251Z,21.00
2017-09-25T11:37:55.876Z,21.10
2017-09-25T11:40:01.584Z,30.10
2017-09-25T11:42:09.440Z,18.67
2017-09-25T11:44:16.735Z,19.23
2017-09-25T11:46:23.573Z,18.90
2017-09-25T11:48:30.888Z,18.33
2017-09-25T11:50:37.381Z,18.83
2017-09-25T11:52:43.309Z,18.60
2017-09-25T11:54:49.538Z,18.63
2017-09-25T11:56:55.085Z,19.93
2017-09-25T11:59:00.772Z,17.77
2017-09-25T12:01:06.351Z,19.90
2017-09-25T12:03:13.334Z,20.50
2017-09-25T12:05:20.124Z,17.97
2017-09-25T12:07:30.421Z,19.27
2017-09-25T12:09:36.065Z,18.57
2017-09-25T12:11:41.470Z,17.97
2017-09-25T12:13:47.153Z,18.67
2017-09-25T12:15:52.861Z,18.17
2017-09-25T12:17:58.477Z,18.40
2017-09-25T12:20:04.530Z,18.70
2017-09-25T12:22:10.366Z,19.50
2017-09-25T12:24:16.818Z,18.93
2017-09-25T12:26:23.916Z,19.53
2017-09-25T12:28:30.432Z,15.07
2017-09-25T12:30:37.995Z,14.97
2017-09-25T12:32:46.896Z,16.30
2017-09-25T12:34:52.883Z,13.80
2017-09-25T12:36:58.566Z,14.13
2017-09-25T12:39:04.610Z,13.80
2017-09-25T12:41:10.461Z,13.63
2017-09-25T12:43:16.146Z,14.30
2017-09-25T12:45:23.249Z,14.00
2017-09-25T12:47:29.774Z,17.63
2017-09-25T12:49:36.534Z,12.00
2017-09-25T12:51:42.562Z,11.80
2017-09-25T12:53:48.271Z,12.20
2017-09-25T12:55:57.227Z,12.00
2017-09-25T12:58:02.918Z,11.77
2017-09-25T13:00:11.808Z,12.50
2017-09-25T13:02:17.864Z,10.97
2017-09-25T13:04:34.385Z,11.20
2017-09-25T13:06:41.178Z,11.37
2017-09-25T13:08:46.828Z,11.80
2017-09-25T13:10:52.854Z,11.10
2017-09-25T13:12:59.385Z,17.73
2017-09-25T13:15:05.944Z,11.90
2017-09-25T13:17:12.335Z,12.00
2017-09-25T13:19:21.821Z,11.10
2017-09-25T13:21:28.406Z,10.93
2017-09-25T13:23:35.740Z,11.60
2017-09-25T13:25:43.365Z,13.87
2017-09-25T13:27:50.766Z,11.20
2017-09-25T13:29:57.723Z,11.70
2017-09-25T13:32:03.357Z,12.80
2017-09-25T13:34:10.154Z,12.23
2017-09-25T13:36:18.147Z,10.83
2017-09-25T13:38:25.997Z,10.93
2017-09-25T13:40:35.538Z,14.03
2017-09-25T13:42:41.816Z,12.23
2017-09-25T13:44:48.626Z,12.27
2017-09-25T13:46:54.255Z,12.23
2017-09-25T13:49:00.448Z,12.13
2017-09-25T13:51:07.287Z,12.70
2017-09-25T13:53:13.096Z,14.97
2017-09-25T13:55:21.878Z,14.40
2017-09-25T13:57:28.550Z,13.90
2017-09-25T14:03:56.983Z,15.13
2017-09-25T14:06:02.806Z,13.83
2017-09-25T14:08:08.801Z,16.23
2017-09-25T14:10:14.336Z,13.87
2017-09-25T14:12:23.718Z,15.03
2017-09-25T14:14:30.701Z,16.87
2017-09-25T14:16:37.882Z,17.33
2017-09-25T14:18:43.397Z,15.40
2017-09-25T14:20:49.471Z,15.27
2017-09-25T14:22:55.160Z,16.27
2017-09-25T14:25:00.676Z,15.77
2017-09-25T14:27:06.460Z,14.17
2017-09-25T14:29:11.965Z,14.80
2017-09-25T14:31:20.057Z,14.50
2017-09-25T14:33:26.561Z,14.33
2017-09-25T14:35:32.543Z,15.43
2017-09-25T14:37:38.220Z,15.27
2017-09-25T14:39:45.101Z,15.73
2017-09-25T14:41:50.799Z,16.40
2017-09-25T14:43:56.385Z,16.67
2017-09-25T14:46:04.082Z,15.03
2017-09-25T14:48:10.059Z,17.63
2017-09-25T14:50:15.698Z,15.63
2017-09-25T14:52:26.605Z,16.33
2017-09-25T14:54:44.268Z,15.70
2017-09-25T14:56:50.438Z,12.90
2017-09-25T14:58:57.990Z,13.53
2017-09-25T15:01:07.184Z,15.17
2017-09-25T15:03:19.282Z,13.70
2017-09-25T15:05:29.610Z,13.80
2017-09-25T15:07:37.044Z,13.70
2017-09-25T15:12:15.345Z,12.33
2017-09-25T15:14:28.478Z,12.63
2017-09-25T15:16:39.107Z,13.70
2017-09-25T15:18:47.148Z,104.80
2017-09-25T15:20:53.829Z,458.40
2017-09-25T15:22:59.396Z,772.00
2017-09-25T15:25:08.280Z,477.97
2017-09-25T15:27:14.255Z,358.60
2017-09-25T15:29:23.635Z,225.60
2017-09-25T15:31:32.883Z,174.10
2017-09-25T15:33:40.782Z,132.40
2017-09-25T15:35:46.817Z,119.10
2017-09-25T15:37:53.120Z,94.87
2017-09-25T15:40:08.423Z,94.83
2017-09-25T15:42:14.494Z,125.23
2017-09-25T15:44:24.322Z,87.63
2017-09-25T15:46:30.230Z,94.77
2017-09-25T15:48:37.383Z,74.40
2017-09-25T15:50:43.928Z,79.83
2017-09-25T15:52:49.429Z,80.53
2017-09-25T15:54:55.928Z,67.17
2017-09-25T15:57:02.598Z,72.03
2017-09-25T15:59:08.484Z,69.90
2017-09-25T16:01:14.314Z,69.70
2017-09-25T16:03:23.893Z,61.37
2017-09-25T16:05:32.005Z,269.57
2017-09-25T16:07:39.587Z,612.13
2017-09-25T16:09:45.782Z,929.53
2017-09-25T16:11:51.883Z,469.93
2017-09-25T16:13:58.509Z,342.40
2017-09-25T16:16:04.158Z,285.10
2017-09-25T16:18:13.805Z,188.87
2017-09-25T16:20:19.999Z,176.00
2017-09-25T16:22:32.164Z,137.20
2017-09-25T16:24:45.476Z,130.57
2017-09-25T16:26:51.202Z,122.93
2017-09-25T16:28:57.892Z,125.00
2017-09-25T16:31:05.335Z,103.57
2017-09-25T16:33:11.340Z,101.10
2017-09-25T16:35:17.464Z,100.13
2017-09-25T16:37:27.833Z,98.50
2017-09-25T16:43:00.282Z,716.17
2017-09-25T16:45:09.204Z,524.63
2017-09-25T16:47:17.668Z,396.40
2017-09-25T16:49:28.997Z,398.87
2017-09-25T16:51:39.125Z,650.63
2017-09-25T16:53:46.121Z,312.50
2017-09-25T16:55:53.208Z,190.37
2017-09-25T16:58:00.249Z,167.87
2017-09-25T17:00:07.908Z,145.97
2017-09-25T17:02:13.945Z,145.80
2017-09-25T17:04:19.726Z,125.50
2017-09-25T17:06:30.381Z,134.97
2017-09-25T17:08:36.681Z,112.67
2017-09-25T17:10:42.651Z,112.33
2017-09-25T17:12:48.923Z,109.57
2017-09-25T17:14:54.492Z,107.03
2017-09-25T17:17:00.533Z,95.90
2017-09-25T17:21:29.590Z,561.27
2017-09-25T17:23:38.208Z,749.63
2017-09-25T17:25:43.861Z,638.23
2017-09-25T17:28:00.295Z,502.47
2017-09-25T17:32:42.308Z,294.80
2017-09-25T17:34:50.312Z,230.30
2017-09-25T17:37:00.770Z,204.47
2017-09-25T17:39:07.467Z,187.47
2017-09-25T17:41:16.309Z,151.90
2017-09-25T17:43:21.917Z,138.90
2017-09-25T17:45:30.259Z,147.23
2017-09-25T17:47:42.458Z,125.00
2017-09-25T17:49:50.660Z,130.10
2017-09-25T17:53:24.817Z,124.73
2017-09-25T17:55:37.996Z,100.33
2017-09-25T17:57:44.085Z,102.87
2017-09-25T17:59:54.920Z,99.20
2017-09-25T18:04:21.914Z,88.80
2017-09-25T18:06:34.524Z,71.87
2017-09-25T18:08:42.538Z,78.37
2017-09-25T18:10:55.963Z,73.40
2017-09-25T18:13:04.231Z,66.70
2017-09-25T18:15:15.419Z,66.87
2017-09-25T18:17:23.482Z,47.70
2017-09-25T18:19:34.811Z,44.23
2017-09-25T18:21:42.740Z,48.23
2017-09-25T18:23:51.959Z,44.90
2017-09-25T18:26:04.619Z,43.47
2017-09-25T18:28:13.117Z,282.97
2017-09-25T18:30:21.925Z,557.50
2017-09-25T18:32:36.786Z,620.53
2017-09-25T18:34:55.526Z,473.10
2017-09-25T18:37:03.436Z,326.23
2017-09-25T18:39:11.637Z,216.20
2017-09-25T18:41:18.419Z,183.37
2017-09-25T18:43:38.820Z,148.53
2017-09-25T18:45:50.152Z,135.57
2017-09-25T18:48:08.947Z,113.47
2017-09-25T18:50:23.351Z,109.27
2017-09-25T18:52:36.742Z,111.70
2017-09-25T18:54:43.742Z,118.67
2017-09-25T18:56:49.790Z,103.27
2017-09-25T18:58:56.195Z,120.37
2017-09-25T19:01:04.952Z,92.60
2017-09-25T19:03:11.810Z,97.20
2017-09-25T19:05:18.016Z,98.63
2017-09-25T19:07:25.636Z,92.90
2017-09-25T19:09:35.742Z,86.90
2017-09-25T19:11:41.405Z,69.40
2017-09-25T19:13:47.704Z,62.97
2017-09-25T19:15:54.860Z,65.87
2017-09-25T19:18:02.652Z,58.00
2017-09-25T19:20:09.403Z,55.97
2017-09-25T19:22:16.351Z,61.83
2017-09-25T19:26:45.743Z,53.50
2017-09-25T19:28:54.110Z,48.37
2017-09-25T19:31:00.898Z,47.10
2017-09-25T19:33:08.817Z,48.33
2017-09-25T19:35:17.264Z,42.17
2017-09-25T19:37:26.139Z,37.60
2017-09-25T19:39:34.724Z,34.60
2017-09-25T19:41:41.930Z,33.60
2017-09-25T19:43:48.227Z,31.47
2017-09-25T19:45:54.754Z,26.80
2017-09-25T19:48:01.189Z,29.63
2017-09-25T19:50:08.057Z,24.13
2017-09-25T19:52:15.171Z,25.20
2017-09-25T19:54:21.296Z,23.87
2017-09-25T19:56:28.881Z,23.53
2017-09-25T19:58:38.548Z,26.30
2017-09-25T20:00:46.231Z,21.73
2017-09-25T20:02:52.440Z,21.20
2017-09-25T20:04:58.644Z,18.63
2017-09-25T20:07:05.355Z,20.80
2017-09-25T20:09:12.190Z,17.43
2017-09-25T20:11:18.023Z,20.87
2017-09-25T20:13:25.658Z,18.20
2017-09-25T20:15:35.906Z,16.30
2017-09-25T20:17:45.427Z,14.37
2017-09-25T20:19:52.000Z,14.37
2017-09-25T20:21:58.937Z,15.53
2017-09-25T20:24:06.925Z,21.93
2017-09-25T20:26:14.193Z,343.07
2017-09-25T20:28:26.663Z,358.73
2017-09-25T20:30:32.592Z,422.47
2017-09-25T20:32:47.204Z,256.20
2017-09-25T20:34:55.485Z,192.77
2017-09-25T20:37:03.283Z,169.07
2017-09-25T20:39:12.081Z,160.93
2017-09-25T20:41:24.128Z,137.73
2017-09-25T20:43:38.248Z,123.80
2017-09-25T20:45:46.063Z,99.23
2017-09-25T20:47:56.805Z,85.23
2017-09-25T20:50:03.492Z,87.33
2017-09-25T20:52:11.068Z,84.40
2017-09-25T20:54:22.055Z,74.03
2017-09-25T20:56:35.217Z,67.17
2017-09-25T20:58:47.002Z,64.43
2017-09-25T21:00:57.701Z,66.37
2017-09-25T21:03:07.803Z,57.00
2017-09-25T21:05:13.917Z,51.50
2017-09-25T21:07:19.594Z,54.23
2017-09-25T21:09:27.428Z,49.27
2017-09-25T21:13:53.533Z,40.40
2017-09-25T21:16:00.061Z,38.63
2017-09-25T21:18:07.640Z,37.33
2017-09-25T21:20:13.901Z,36.17
2017-09-25T21:22:23.708Z,36.20
2017-09-25T21:24:30.504Z,33.13
2017-09-25T21:26:43.717Z,29.53
2017-09-25T21:28:50.656Z,25.57
2017-09-25T21:30:56.859Z,28.13
2017-09-25T21:33:03.090Z,29.03
2017-09-25T21:35:10.505Z,25.17
2017-09-25T21:37:16.653Z,23.23
2017-09-25T21:39:22.811Z,26.00
2017-09-25T21:41:29.046Z,21.73
2017-09-25T21:43:46.031Z,21.17
2017-09-25T21:46:00.512Z,21.10
2017-09-25T21:48:06.803Z,21.33
2017-09-25T21:50:13.780Z,18.30
2017-09-25T21:52:19.501Z,20.40
2017-09-25T21:54:25.560Z,18.50
2017-09-25T21:56:32.459Z,18.90
2017-09-25T21:58:41.031Z,18.20
2017-09-25T22:00:50.429Z,16.83
2017-09-25T22:02:56.891Z,17.50
2017-09-25T22:05:02.728Z,17.40
2017-09-25T22:07:08.920Z,15.03
2017-09-25T22:09:15.611Z,15.03
2017-09-25T22:11:23.633Z,14.80
2017-09-25T22:13:31.002Z,14.17
2017-09-25T22:15:47.225Z,13.13
2017-09-25T22:17:57.058Z,14.97
2017-09-25T22:20:10.345Z,14.20
2017-09-25T22:22:27.415Z,14.83
2017-09-25T22:24:42.722Z,14.10
2017-09-25T22:26:55.483Z,12.83
2017-09-25T22:29:02.147Z,12.77
2017-09-25T22:31:08.152Z,12.80
2017-09-25T22:33:14.338Z,11.83
2017-09-25T22:35:20.651Z,16.40
2017-09-25T22:37:29.061Z,12.87
2017-09-25T22:39:37.589Z,12.27
2017-09-25T22:41:49.836Z,13.20
2017-09-25T22:43:55.763Z,12.00
2017-09-25T22:46:03.047Z,13.07
2017-09-25T22:48:09.062Z,12.83
2017-09-25T22:50:15.582Z,12.17
2017-09-25T22:52:22.433Z,12.50
2017-09-25T22:54:30.949Z,11.50
2017-09-25T22:56:38.373Z,13.03
2017-09-25T22:58:47.696Z,13.57
2017-09-25T23:00:53.264Z,13.43
2017-09-25T23:03:00.001Z,13.93
2017-09-25T23:05:08.396Z,14.90
2017-09-25T23:07:15.904Z,14.00
2017-09-25T23:09:25.771Z,11.87
2017-09-25T23:11:34.244Z,15.30
2017-09-25T23:13:43.514Z,12.63
2017-09-25T23:15:49.050Z,14.10
2017-09-25T23:17:55.438Z,22.73
2017-09-25T23:20:00.977Z,13.20
2017-09-25T23:22:06.925Z,12.87
2017-09-25T23:24:18.663Z,12.47
2017-09-25T23:26:25.027Z,13.20
2017-09-25T23:28:32.373Z,15.27
2017-09-25T23:30:40.105Z,13.70
2017-09-25T23:32:47.798Z,14.07
2017-09-25T23:34:53.306Z,13.23
2017-09-25T23:36:59.590Z,12.77
2017-09-25T23:39:07.110Z,15.43
2017-09-25T23:41:12.549Z,12.93
2017-09-25T23:43:19.540Z,11.80
2017-09-25T23:45:24.814Z,12.60
2017-09-25T23:47:36.846Z,11.67
2017-09-25T23:49:44.902Z,13.13
2017-09-25T23:54:12.261Z,10.40
2017-09-25T23:56:18.574Z,13.40
2017-09-25T23:58:28.866Z,11.27
